Ivinghoe, United Kingdom
Current Conditions -  °F | °C
As of 10:50 PM on Friday 28 Nov 2014 (Local Time) from EGGW Reporting Station
Light Rain Light Rain  
Wind Chill: 50°   Ceiling: Unl
Heat Index: 50°   Visibility: 3mi
Dew Point: 50°   Wind: 9mph
Humidity: 100%   Direction: 100°E
Pressure: 29.74"   Gusts: NA
Location:  51.84°N, 0.63°W
Report Text: EGGW 282250Z 10008KT 5000 -RA NSC 10/10 Q1007
Loading
Personal Weather Stations






























Interactive Weather Map New forecast layout! Learn more

10-Day Weather Forecast

Advertisements
Track Severe Weather on mobile